sensor_id;sensor_type;location;lat;lon;timestamp;pressure;altitude;pressure_sealevel;temperature;humidity
33185;BME280;19550;42.872;25.494;2023-02-04T00:01:59;96154.41;;;1.36;100.00
33185;BME280;19550;42.872;25.494;2023-02-04T00:04:26;96145.66;;;1.29;100.00
33185;BME280;19550;42.872;25.494;2023-02-04T00:06:53;96149.47;;;1.28;100.00
33185;BME280;19550;42.872;25.494;2023-02-04T00:09:20;96147.00;;;1.27;100.00
33185;BME280;19550;42.872;25.494;2023-02-04T00:11:47;96131.19;;;1.29;100.00
33185;BME280;19550;42.872;25.494;2023-02-04T00:14:14;96133.06;;;1.18;100.00
33185;BME280;19550;42.872;25.494;2023-02-04T00:16:42;96124.94;;;1.38;100.00
33185;BME280;19550;42.872;25.494;2023-02-04T00:19:09;96114.28;;;1.32;100.00
33185;BME280;19550;42.872;25.494;2023-02-04T00:21:36;96101.97;;;1.34;100.00
33185;BME280;19550;42.872;25.494;2023-02-04T00:24:03;96112.63;;;1.31;100.00
33185;BME280;19550;42.872;25.494;2023-02-04T00:26:30;96101.13;;;1.18;100.00
33185;BME280;19550;42.872;25.494;2023-02-04T00:28:57;96103.31;;;1.22;100.00
33185;BME280;19550;42.872;25.494;2023-02-04T00:31:24;96092.97;;;1.29;100.00
33185;BME280;19550;42.872;25.494;2023-02-04T00:33:52;96097.59;;;1.23;100.00
33185;BME280;19550;42.872;25.494;2023-02-04T00:36:19;96093.78;;;1.19;100.00
33185;BME280;19550;42.872;25.494;2023-02-04T00:38:46;96087.75;;;1.22;100.00
33185;BME280;19550;42.872;25.494;2023-02-04T00:41:13;96077.38;;;1.14;100.00
33185;BME280;19550;42.872;25.494;2023-02-04T00:43:40;96076.28;;;1.15;100.00
33185;BME280;19550;42.872;25.494;2023-02-04T00:46:06;96073.88;;;1.44;100.00
33185;BME280;19550;42.872;25.494;2023-02-04T00:48:33;96057.19;;;1.20;100.00
33185;BME280;19550;42.872;25.494;2023-02-04T00:51:02;96066.50;;;1.29;100.00
33185;BME280;19550;42.872;25.494;2023-02-04T00:53:29;96064.56;;;1.30;100.00
33185;BME280;19550;42.872;25.494;2023-02-04T00:55:56;96055.56;;;1.29;100.00
33185;BME280;19550;42.872;25.494;2023-02-04T00:58:22;96048.72;;;1.22;100.00
33185;BME280;19550;42.872;25.494;2023-02-04T01:00:49;96038.38;;;1.34;100.00
33185;BME280;19550;42.872;25.494;2023-02-04T01:03:16;96035.38;;;1.30;100.00
33185;BME280;19550;42.872;25.494;2023-02-04T01:05:43;96027.47;;;1.44;100.00
33185;BME280;19550;42.872;25.494;2023-02-04T01:08:11;96022.28;;;1.52;100.00
33185;BME280;19550;42.872;25.494;2023-02-04T01:10:38;96013.25;;;1.42;100.00
33185;BME280;19550;42.872;25.494;2023-02-04T01:13:05;96008.34;;;1.18;100.00
33185;BME280;19550;42.872;25.494;2023-02-04T01:15:33;96001.50;;;1.21;100.00
33185;BME280;19550;42.872;25.494;2023-02-04T01:18:00;95988.13;;;1.14;100.00
33185;BME280;19550;42.872;25.494;2023-02-04T01:20:27;95982.69;;;1.25;100.00
33185;BME280;19550;42.872;25.494;2023-02-04T01:22:54;95977.50;;;1.43;100.00
33185;BME280;19550;42.872;25.494;2023-02-04T01:25:22;95962.47;;;1.41;100.00
33185;BME280;19550;42.872;25.494;2023-02-04T01:27:49;95962.19;;;1.63;100.00
33185;BME280;19550;42.872;25.494;2023-02-04T01:30:16;95963.03;;;1.48;100.00
33185;BME280;19550;42.872;25.494;2023-02-04T01:32:43;95954.56;;;1.49;100.00
33185;BME280;19550;42.872;25.494;2023-02-04T01:35:10;95946.09;;;1.41;100.00
33185;BME280;19550;42.872;25.494;2023-02-04T01:37:37;95938.19;;;1.24;100.00
33185;BME280;19550;42.872;25.494;2023-02-04T01:40:04;95936.53;;;1.33;100.00
33185;BME280;19550;42.872;25.494;2023-02-04T01:42:33;95937.66;;;1.37;100.00
33185;BME280;19550;42.872;25.494;2023-02-04T01:45:00;95936.53;;;1.33;100.00
33185;BME280;19550;42.872;25.494;2023-02-04T01:47:26;95919.34;;;1.28;100.00
33185;BME280;19550;42.872;25.494;2023-02-04T01:49:54;95930.00;;;1.29;100.00
33185;BME280;19550;42.872;25.494;2023-02-04T01:52:21;95918.53;;;1.32;100.00
33185;BME280;19550;42.872;25.494;2023-02-04T01:54:49;95915.25;;;1.30;100.00
33185;BME280;19550;42.872;25.494;2023-02-04T01:57:16;95905.13;;;1.51;100.00
33185;BME280;19550;42.872;25.494;2023-02-04T01:59:46;95890.94;;;1.44;100.00
33185;BME280;19550;42.872;25.494;2023-02-04T02:02:36;95889.53;;;1.67;100.00
33185;BME280;19550;42.872;25.494;2023-02-04T02:05:04;95885.75;;;1.57;100.00
33185;BME280;19550;42.872;25.494;2023-02-04T02:07:31;95881.09;;;1.58;100.00
33185;BME280;19550;42.872;25.494;2023-02-04T02:09:58;95872.38;;;1.51;100.00
33185;BME280;19550;42.872;25.494;2023-02-04T02:12:25;95872.41;;;1.46;100.00
33185;BME280;19550;42.872;25.494;2023-02-04T02:14:53;95860.91;;;1.49;100.00
33185;BME280;19550;42.872;25.494;2023-02-04T02:17:20;95862.53;;;1.50;100.00
33185;BME280;19550;42.872;25.494;2023-02-04T02:19:47;95854.84;;;1.62;100.00
33185;BME280;19550;42.872;25.494;2023-02-04T02:22:19;95851.59;;;1.55;100.00
33185;BME280;19550;42.872;25.494;2023-02-04T02:24:49;95840.69;;;1.50;100.00
33185;BME280;19550;42.872;25.494;2023-02-04T02:27:16;95845.88;;;1.46;100.00
33185;BME280;19550;42.872;25.494;2023-02-04T02:29:42;95837.41;;;1.58;100.00
33185;BME280;19550;42.872;25.494;2023-02-04T02:32:11;95845.59;;;1.58;100.00
33185;BME280;19550;42.872;25.494;2023-02-04T02:34:40;95837.41;;;1.53;100.00
33185;BME280;19550;42.872;25.494;2023-02-04T02:37:07;95830.88;;;1.44;100.00
33185;BME280;19550;42.872;25.494;2023-02-04T02:39:34;95796.47;;;1.48;100.00
33185;BME280;19550;42.872;25.494;2023-02-04T02:42:03;95825.09;;;1.66;100.00
33185;BME280;19550;42.872;25.494;2023-02-04T02:44:30;95823.47;;;1.54;100.00
33185;BME280;19550;42.872;25.494;2023-02-04T02:46:58;95821.53;;;1.60;100.00
33185;BME280;19550;42.872;25.494;2023-02-04T02:49:26;95816.91;;;1.66;100.00
33185;BME280;19550;42.872;25.494;2023-02-04T02:51:55;95818.00;;;1.59;100.00
33185;BME280;19550;42.872;25.494;2023-02-04T02:54:24;95805.66;;;1.77;100.00
33185;BME280;19550;42.872;25.494;2023-02-04T02:56:52;95808.69;;;1.71;100.00
33185;BME280;19550;42.872;25.494;2023-02-04T02:59:21;95806.81;;;1.56;100.00
33185;BME280;19550;42.872;25.494;2023-02-04T03:01:53;95795.38;;;1.49;100.00
33185;BME280;19550;42.872;25.494;2023-02-04T03:04:24;95817.19;;;1.54;100.00
33185;BME280;19550;42.872;25.494;2023-02-04T03:06:53;95803.00;;;1.47;100.00
33185;BME280;19550;42.872;25.494;2023-02-04T03:09:20;95804.63;;;1.58;100.00
33185;BME280;19550;42.872;25.494;2023-02-04T03:11:48;95803.81;;;1.57;100.00
33185;BME280;19550;42.872;25.494;2023-02-04T03:14:16;95800.78;;;1.64;100.00
33185;BME280;19550;42.872;25.494;2023-02-04T03:16:45;95796.16;;;1.59;100.00
33185;BME280;19550;42.872;25.494;2023-02-04T03:19:13;95793.72;;;1.58;100.00
33185;BME280;19550;42.872;25.494;2023-02-04T03:21:40;95794.53;;;1.58;100.00
33185;BME280;19550;42.872;25.494;2023-02-04T03:24:07;95798.03;;;1.69;100.00
33185;BME280;19550;42.872;25.494;2023-02-04T03:26:34;95792.00;;;1.77;100.00
33185;BME280;19550;42.872;25.494;2023-02-04T03:29:01;95790.06;;;1.78;100.00
33185;BME280;19550;42.872;25.494;2023-02-04T03:31:31;95788.16;;;1.73;100.00
33185;BME280;19550;42.872;25.494;2023-02-04T03:34:00;95787.66;;;1.71;100.00
33185;BME280;19550;42.872;25.494;2023-02-04T03:36:26;95787.38;;;1.73;100.00
33185;BME280;19550;42.872;25.494;2023-02-04T03:38:53;95789.28;;;1.67;100.00
33185;BME280;19550;42.872;25.494;2023-02-04T03:41:21;95790.03;;;1.83;100.00
33185;BME280;19550;42.872;25.494;2023-02-04T03:43:48;95788.97;;;1.79;100.00
33185;BME280;19550;42.872;25.494;2023-02-04T03:46:15;95801.28;;;1.76;100.00
33185;BME280;19550;42.872;25.494;2023-02-04T03:48:41;95787.06;;;1.74;100.00
33185;BME280;19550;42.872;25.494;2023-02-04T03:51:10;95784.84;;;1.81;100.00
33185;BME280;19550;42.872;25.494;2023-02-04T03:53:36;95778.56;;;1.81;100.00
33185;BME280;19550;42.872;25.494;2023-02-04T03:56:04;95779.97;;;1.78;100.00
33185;BME280;19550;42.872;25.494;2023-02-04T03:58:31;95773.66;;;1.83;100.00
33185;BME280;19550;42.872;25.494;2023-02-04T04:00:57;95773.06;;;1.91;100.00
33185;BME280;19550;42.872;25.494;2023-02-04T04:03:24;95768.38;;;1.96;100.00
33185;BME280;19550;42.872;25.494;2023-02-04T04:05:51;95762.19;;;1.86;100.00
33185;BME280;19550;42.872;25.494;2023-02-04T04:08:19;95763.56;;;1.78;100.00
33185;BME280;19550;42.872;25.494;2023-02-04T04:10:46;95771.44;;;1.90;100.00
33185;BME280;19550;42.872;25.494;2023-02-04T04:13:13;95772.25;;;1.90;100.00
33185;BME280;19550;42.872;25.494;2023-02-04T04:15:40;95768.97;;;1.88;100.00
33185;BME280;19550;42.872;25.494;2023-02-04T04:18:07;95747.16;;;1.83;100.00
33185;BME280;19550;42.872;25.494;2023-02-04T04:20:33;95759.44;;;1.86;100.00
33185;BME280;19550;42.872;25.494;2023-02-04T04:23:00;95755.78;;;2.00;100.00
33185;BME280;19550;42.872;25.494;2023-02-04T04:25:28;95752.59;;;1.88;100.00
33185;BME280;19550;42.872;25.494;2023-02-04T04:27:55;95763.47;;;1.93;100.00
33185;BME280;19550;42.872;25.494;2023-02-04T04:30:22;95742.28;;;1.75;100.00
33185;BME280;19550;42.872;25.494;2023-02-04T04:32:49;95748.25;;;1.82;100.00
33185;BME280;19550;42.872;25.494;2023-02-04T04:35:16;95748.81;;;1.74;100.00
33185;BME280;19550;42.872;25.494;2023-02-04T04:37:43;95736.84;;;1.70;100.00
33185;BME280;19550;42.872;25.494;2023-02-04T04:40:11;95750.44;;;1.80;100.00
33185;BME280;19550;42.872;25.494;2023-02-04T04:42:39;95738.72;;;1.75;100.00
33185;BME280;19550;42.872;25.494;2023-02-04T04:45:07;95740.63;;;1.79;100.00
33185;BME280;19550;42.872;25.494;2023-02-04T04:47:34;95746.06;;;1.84;100.00
33185;BME280;19550;42.872;25.494;2023-02-04T04:50:02;95738.06;;;1.93;100.00
33185;BME280;19550;42.872;25.494;2023-02-04T04:52:29;95731.81;;;1.92;100.00
33185;BME280;19550;42.872;25.494;2023-02-04T04:54:56;95735.63;;;1.91;100.00
33185;BME280;19550;42.872;25.494;2023-02-04T04:57:23;95745.41;;;2.03;100.00
33185;BME280;19550;42.872;25.494;2023-02-04T04:59:51;95730.94;;;1.97;100.00
33185;BME280;19550;42.872;25.494;2023-02-04T05:02:18;95737.75;;;1.99;100.00
33185;BME280;19550;42.872;25.494;2023-02-04T05:04:45;95753.00;;;2.11;100.00
33185;BME280;19550;42.872;25.494;2023-02-04T05:07:11;95723.00;;;2.00;100.00
33185;BME280;19550;42.872;25.494;2023-02-04T05:09:38;95729.19;;;2.16;100.00
33185;BME280;19550;42.872;25.494;2023-02-04T05:12:05;95732.97;;;2.20;100.00
33185;BME280;19550;42.872;25.494;2023-02-04T05:14:32;95729.22;;;2.11;100.00
33185;BME280;19550;42.872;25.494;2023-02-04T05:17:00;95732.47;;;2.13;100.00
33185;BME280;19550;42.872;25.494;2023-02-04T05:19:27;95728.44;;;2.06;100.00
33185;BME280;19550;42.872;25.494;2023-02-04T05:21:54;95737.38;;;2.16;100.00
33185;BME280;19550;42.872;25.494;2023-02-04T05:24:21;95738.19;;;2.17;100.00
33185;BME280;19550;42.872;25.494;2023-02-04T05:26:48;95737.94;;;2.13;100.00
33185;BME280;19550;42.872;25.494;2023-02-04T05:29:16;95718.16;;;2.26;100.00
33185;BME280;19550;42.872;25.494;2023-02-04T05:31:43;95726.34;;;2.31;100.00
33185;BME280;19550;42.872;25.494;2023-02-04T05:34:11;95711.41;;;2.14;100.00
33185;BME280;19550;42.872;25.494;2023-02-04T05:36:38;95726.31;;;2.36;100.00
33185;BME280;19550;42.872;25.494;2023-02-04T05:39:05;95712.59;;;2.42;100.00
33185;BME280;19550;42.872;25.494;2023-02-04T05:41:32;95721.66;;;2.37;100.00
33185;BME280;19550;42.872;25.494;2023-02-04T05:43:59;95721.88;;;2.46;100.00
33185;BME280;19550;42.872;25.494;2023-02-04T05:46:26;95727.56;;;2.49;100.00
33185;BME280;19550;42.872;25.494;2023-02-04T05:48:52;95725.47;;;2.36;100.00
33185;BME280;19550;42.872;25.494;2023-02-04T05:51:21;95739.44;;;2.68;100.00
33185;BME280;19550;42.872;25.494;2023-02-04T05:53:48;95743.75;;;2.74;100.00
33185;BME280;19550;42.872;25.494;2023-02-04T05:56:15;95733.41;;;2.71;100.00
33185;BME280;19550;42.872;25.494;2023-02-04T05:58:41;95737.13;;;2.80;100.00
33185;BME280;19550;42.872;25.494;2023-02-04T06:01:08;95737.78;;;2.67;100.00
33185;BME280;19550;42.872;25.494;2023-02-04T06:03:35;95744.38;;;2.66;100.00
33185;BME280;19550;42.872;25.494;2023-02-04T06:06:02;95758.31;;;2.70;100.00
33185;BME280;19550;42.872;25.494;2023-02-04T06:08:31;95766.78;;;2.68;100.00
33185;BME280;19550;42.872;25.494;2023-02-04T06:10:59;95759.94;;;2.71;100.00
33185;BME280;19550;42.872;25.494;2023-02-04T06:13:26;95762.41;;;2.72;100.00
33185;BME280;19550;42.872;25.494;2023-02-04T06:15:53;95764.16;;;2.58;100.00
33185;BME280;19550;42.872;25.494;2023-02-04T06:18:20;95767.44;;;2.55;100.00
33185;BME280;19550;42.872;25.494;2023-02-04T06:20:47;95772.84;;;2.65;100.00
33185;BME280;19550;42.872;25.494;2023-02-04T06:23:13;95771.78;;;2.61;100.00
33185;BME280;19550;42.872;25.494;2023-02-04T06:25:42;95777.50;;;2.60;100.00
33185;BME280;19550;42.872;25.494;2023-02-04T06:28:10;95781.88;;;2.66;100.00
33185;BME280;19550;42.872;25.494;2023-02-04T06:30:37;95777.19;;;2.66;100.00
33185;BME280;19550;42.872;25.494;2023-02-04T06:33:04;95780.41;;;2.73;100.00
33185;BME280;19550;42.872;25.494;2023-02-04T06:35:31;95767.22;;;2.80;100.00
33185;BME280;19550;42.872;25.494;2023-02-04T06:37:57;95778.44;;;2.84;100.00
33185;BME280;19550;42.872;25.494;2023-02-04T06:40:24;95769.63;;;2.87;100.00
33185;BME280;19550;42.872;25.494;2023-02-04T06:42:53;95768.31;;;2.85;100.00
33185;BME280;19550;42.872;25.494;2023-02-04T06:45:21;95768.25;;;2.90;100.00
33185;BME280;19550;42.872;25.494;2023-02-04T06:47:48;95779.69;;;2.97;100.00
33185;BME280;19550;42.872;25.494;2023-02-04T06:50:15;95741.00;;;2.74;100.00
33185;BME280;19550;42.872;25.494;2023-02-04T06:52:43;95782.97;;;2.94;100.00
33185;BME280;19550;42.872;25.494;2023-02-04T06:55:10;95774.78;;;2.94;100.00
33185;BME280;19550;42.872;25.494;2023-02-04T06:57:37;95756.63;;;2.74;100.00
33185;BME280;19550;42.872;25.494;2023-02-04T07:00:07;95789.56;;;2.93;100.00
33185;BME280;19550;42.872;25.494;2023-02-04T07:02:35;95789.81;;;2.96;100.00
33185;BME280;19550;42.872;25.494;2023-02-04T07:05:04;95796.66;;;2.94;100.00
33185;BME280;19550;42.872;25.494;2023-02-04T07:07:31;95799.44;;;2.89;100.00
33185;BME280;19550;42.872;25.494;2023-02-04T07:09:58;95794.53;;;2.91;100.00
33185;BME280;19550;42.872;25.494;2023-02-04T07:12:26;95798.31;;;2.95;100.00
33185;BME280;19550;42.872;25.494;2023-02-04T07:14:52;95795.56;;;2.95;100.00
33185;BME280;19550;42.872;25.494;2023-02-04T07:17:21;95802.13;;;2.99;100.00
33185;BME280;19550;42.872;25.494;2023-02-04T07:19:49;95791.63;;;3.06;100.00
33185;BME280;19550;42.872;25.494;2023-02-04T07:22:17;95800.97;;;3.05;100.00
33185;BME280;19550;42.872;25.494;2023-02-04T07:24:44;95795.50;;;3.00;100.00
33185;BME280;19550;42.872;25.494;2023-02-04T07:27:11;95792.75;;;3.05;100.00
33185;BME280;19550;42.872;25.494;2023-02-04T07:29:38;95788.88;;;3.06;100.00
33185;BME280;19550;42.872;25.494;2023-02-04T07:32:05;95792.78;;;3.00;100.00
33185;BME280;19550;42.872;25.494;2023-02-04T07:34:33;95789.97;;;3.10;100.00
33185;BME280;19550;42.872;25.494;2023-02-04T07:37:00;95792.09;;;3.13;100.00
33185;BME280;19550;42.872;25.494;2023-02-04T07:39:27;95789.91;;;3.15;100.00
33185;BME280;19550;42.872;25.494;2023-02-04T07:41:54;95791.81;;;3.14;100.00
33185;BME280;19550;42.872;25.494;2023-02-04T07:44:21;95790.78;;;3.10;100.00
33185;BME280;19550;42.872;25.494;2023-02-04T07:46:47;95785.03;;;3.07;100.00
33185;BME280;19550;42.872;25.494;2023-02-04T07:49:14;95772.72;;;3.09;100.00
33185;BME280;19550;42.872;25.494;2023-02-04T07:51:43;95774.56;;;3.14;100.00
33185;BME280;19550;42.872;25.494;2023-02-04T07:54:09;95774.09;;;3.07;100.00
33185;BME280;19550;42.872;25.494;2023-02-04T07:56:36;95772.66;;;3.14;100.00
33185;BME280;19550;42.872;25.494;2023-02-04T07:59:03;95769.91;;;3.14;100.00
33185;BME280;19550;42.872;25.494;2023-02-04T08:01:30;95768.81;;;3.15;100.00
33185;BME280;19550;42.872;25.494;2023-02-04T08:03:57;95767.78;;;3.11;100.00
33185;BME280;19550;42.872;25.494;2023-02-04T08:06:24;95776.16;;;3.20;100.00
33185;BME280;19550;42.872;25.494;2023-02-04T08:08:52;95774.22;;;3.26;100.00
33185;BME280;19550;42.872;25.494;2023-02-04T08:11:19;95768.72;;;3.26;100.00
33185;BME280;19550;42.872;25.494;2023-02-04T08:13:46;95761.31;;;3.26;100.00
33185;BME280;19550;42.872;25.494;2023-02-04T08:16:13;95769.50;;;3.31;100.00
33185;BME280;19550;42.872;25.494;2023-02-04T08:18:40;95765.75;;;3.22;100.00
33185;BME280;19550;42.872;25.494;2023-02-04T08:21:07;95771.00;;;3.18;100.00
33185;BME280;19550;42.872;25.494;2023-02-04T08:23:34;95757.25;;;3.24;100.00
33185;BME280;19550;42.872;25.494;2023-02-04T08:26:07;95771.22;;;3.22;100.00
33185;BME280;19550;42.872;25.494;2023-02-04T08:28:35;95761.91;;;3.23;100.00
33185;BME280;19550;42.872;25.494;2023-02-04T08:31:03;95772.50;;;3.30;100.00
33185;BME280;19550;42.872;25.494;2023-02-04T08:33:30;95764.00;;;3.31;100.00
33185;BME280;19550;42.872;25.494;2023-02-04T08:35:56;95773.06;;;3.27;100.00
33185;BME280;19550;42.872;25.494;2023-02-04T08:38:23;95761.75;;;3.09;100.00
33185;BME280;19550;42.872;25.494;2023-02-04T08:40:50;95760.25;;;3.22;100.00
33185;BME280;19550;42.872;25.494;2023-02-04T08:43:19;95759.97;;;3.24;100.00
33185;BME280;19550;42.872;25.494;2023-02-04T08:45:46;95762.47;;;3.20;100.00
33185;BME280;19550;42.872;25.494;2023-02-04T08:48:13;95763.97;;;3.07;100.00
33185;BME280;19550;42.872;25.494;2023-02-04T08:50:40;95757.09;;;3.10;100.00
33185;BME280;19550;42.872;25.494;2023-02-04T08:53:07;95758.47;;;3.12;100.00
33185;BME280;19550;42.872;25.494;2023-02-04T08:55:34;95757.59;;;3.17;100.00
33185;BME280;19550;42.872;25.494;2023-02-04T08:58:01;95755.94;;;3.16;100.00
33185;BME280;19550;42.872;25.494;2023-02-04T09:00:29;95746.50;;;3.27;100.00
33185;BME280;19550;42.872;25.494;2023-02-04T09:02:56;95751.41;;;3.30;100.00
33185;BME280;19550;42.872;25.494;2023-02-04T09:05:23;95750.19;;;3.41;100.00
33185;BME280;19550;42.872;25.494;2023-02-04T09:07:50;95746.13;;;3.39;100.00
33185;BME280;19550;42.872;25.494;2023-02-04T09:10:17;95753.41;;;3.48;100.00
33185;BME280;19550;42.872;25.494;2023-02-04T09:12:44;95744.91;;;3.50;100.00
33185;BME280;19550;42.872;25.494;2023-02-04T09:15:11;95742.97;;;3.50;100.00
33185;BME280;19550;42.872;25.494;2023-02-04T09:17:40;95732.41;;;3.63;100.00
33185;BME280;19550;42.872;25.494;2023-02-04T09:20:10;95724.00;;;3.78;100.00
33185;BME280;19550;42.872;25.494;2023-02-04T09:22:37;95721.63;;;3.90;100.00
33185;BME280;19550;42.872;25.494;2023-02-04T09:25:04;95719.72;;;4.09;100.00
33185;BME280;19550;42.872;25.494;2023-02-04T09:27:31;95711.72;;;4.31;100.00
33185;BME280;19550;42.872;25.494;2023-02-04T09:29:58;95719.47;;;4.43;100.00
33185;BME280;19550;42.872;25.494;2023-02-04T09:32:25;95697.56;;;4.24;100.00
33185;BME280;19550;42.872;25.494;2023-02-04T09:34:54;95714.09;;;4.38;100.00
33185;BME280;19550;42.872;25.494;2023-02-04T09:37:20;95706.81;;;4.28;100.00
33185;BME280;19550;42.872;25.494;2023-02-04T09:39:49;95691.78;;;4.07;100.00
33185;BME280;19550;42.872;25.494;2023-02-04T09:42:16;95695.25;;;3.94;100.00
33185;BME280;19550;42.872;25.494;2023-02-04T09:44:43;95686.75;;;3.77;100.00
33185;BME280;19550;42.872;25.494;2023-02-04T09:47:11;95701.19;;;3.82;100.00
33185;BME280;19550;42.872;25.494;2023-02-04T09:49:39;95703.31;;;3.67;100.00
33185;BME280;19550;42.872;25.494;2023-02-04T09:52:11;95682.50;;;3.66;100.00
33185;BME280;19550;42.872;25.494;2023-02-04T09:54:39;95698.53;;;3.53;100.00
33185;BME280;19550;42.872;25.494;2023-02-04T09:57:12;95696.13;;;3.52;100.00
33185;BME280;19550;42.872;25.494;2023-02-04T09:59:41;95683.13;;;3.39;100.00
33185;BME280;19550;42.872;25.494;2023-02-04T10:02:18;95692.09;;;3.44;100.00
33185;BME280;19550;42.872;25.494;2023-02-04T10:04:46;95695.13;;;3.43;100.00
33185;BME280;19550;42.872;25.494;2023-02-04T10:07:16;95699.56;;;3.39;100.00
33185;BME280;19550;42.872;25.494;2023-02-04T10:09:46;95694.09;;;3.39;100.00
33185;BME280;19550;42.872;25.494;2023-02-04T10:12:14;95683.53;;;3.27;100.00
33185;BME280;19550;42.872;25.494;2023-02-04T10:14:41;95696.72;;;3.25;100.00
33185;BME280;19550;42.872;25.494;2023-02-04T10:17:09;95699.66;;;3.29;100.00
33185;BME280;19550;42.872;25.494;2023-02-04T10:19:37;95698.38;;;3.21;100.00
33185;BME280;19550;42.872;25.494;2023-02-04T10:22:10;95694.47;;;3.27;100.00
33185;BME280;19550;42.872;25.494;2023-02-04T10:24:42;95691.63;;;3.13;100.00
33185;BME280;19550;42.872;25.494;2023-02-04T10:27:11;95694.22;;;3.05;100.00
33185;BME280;19550;42.872;25.494;2023-02-04T10:29:41;95693.53;;;3.13;100.00
33185;BME280;19550;42.872;25.494;2023-02-04T10:32:25;95698.81;;;3.09;100.00
33185;BME280;19550;42.872;25.494;2023-02-04T10:34:56;95696.25;;;3.18;100.00
33185;BME280;19550;42.872;25.494;2023-02-04T10:37:24;95695.09;;;3.24;100.00
33185;BME280;19550;42.872;25.494;2023-02-04T10:39:52;95698.38;;;3.21;100.00
33185;BME280;19550;42.872;25.494;2023-02-04T10:42:21;95700.28;;;3.26;100.00
33185;BME280;19550;42.872;25.494;2023-02-04T10:44:48;95690.00;;;3.36;100.00
33185;BME280;19550;42.872;25.494;2023-02-04T10:47:17;95699.22;;;3.45;100.00
33185;BME280;19550;42.872;25.494;2023-02-04T10:49:52;95690.19;;;3.45;100.00
33185;BME280;19550;42.872;25.494;2023-02-04T10:52:21;95686.91;;;3.43;100.00
33185;BME280;19550;42.872;25.494;2023-02-04T10:54:49;95686.31;;;3.46;100.00
33185;BME280;19550;42.872;25.494;2023-02-04T10:57:20;95677.81;;;3.47;100.00
33185;BME280;19550;42.872;25.494;2023-02-04T10:59:50;95674.31;;;3.42;100.00
33185;BME280;19550;42.872;25.494;2023-02-04T11:02:33;95673.38;;;3.51;100.00
33185;BME280;19550;42.872;25.494;2023-02-04T11:05:03;95670.72;;;3.65;100.00
33185;BME280;19550;42.872;25.494;2023-02-04T11:07:31;95669.38;;;3.63;100.00
33185;BME280;19550;42.872;25.494;2023-02-04T11:09:58;95671.09;;;3.58;100.00
33185;BME280;19550;42.872;25.494;2023-02-04T11:12:38;95665.38;;;3.74;100.00
33185;BME280;19550;42.872;25.494;2023-02-04T11:18:27;95658.59;;;3.90;100.00
33185;BME280;19550;42.872;25.494;2023-02-04T11:20:56;95658.00;;;4.12;100.00
33185;BME280;19550;42.872;25.494;2023-02-04T11:23:33;95642.81;;;4.33;100.00
33185;BME280;19550;42.872;25.494;2023-02-04T11:26:04;95634.56;;;4.52;100.00
33185;BME280;19550;42.872;25.494;2023-02-04T11:28:43;95638.31;;;4.56;100.00
33185;BME280;19550;42.872;25.494;2023-02-04T11:31:25;95630.16;;;4.83;100.00
33185;BME280;19550;42.872;25.494;2023-02-04T11:34:11;95620.00;;;4.97;100.00
33185;BME280;19550;42.872;25.494;2023-02-04T11:36:53;95629.94;;;5.34;100.00
33185;BME280;19550;42.872;25.494;2023-02-04T11:39:21;95613.16;;;5.85;100.00
33185;BME280;19550;42.872;25.494;2023-02-04T11:41:48;95598.28;;;6.22;100.00
33185;BME280;19550;42.872;25.494;2023-02-04T11:44:16;95595.63;;;6.93;100.00
33185;BME280;19550;42.872;25.494;2023-02-04T11:46:49;95595.25;;;7.25;100.00
33185;BME280;19550;42.872;25.494;2023-02-04T11:49:21;95596.19;;;7.12;100.00
33185;BME280;19550;42.872;25.494;2023-02-04T11:51:49;95591.56;;;6.90;100.00
33185;BME280;19550;42.872;25.494;2023-02-04T11:54:17;95586.53;;;6.84;100.00
33185;BME280;19550;42.872;25.494;2023-02-04T11:56:44;95598.59;;;6.43;100.00
33185;BME280;19550;42.872;25.494;2023-02-04T11:59:13;95585.66;;;6.21;100.00
33185;BME280;19550;42.872;25.494;2023-02-04T12:01:42;95593.53;;;6.14;100.00
33185;BME280;19550;42.872;25.494;2023-02-04T12:04:23;95589.41;;;6.25;100.00
33185;BME280;19550;42.872;25.494;2023-02-04T12:06:57;95588.66;;;6.33;100.00
33185;BME280;19550;42.872;25.494;2023-02-04T12:09:26;95581.50;;;6.32;100.00
33185;BME280;19550;42.872;25.494;2023-02-04T12:11:55;95589.63;;;6.60;100.00
33185;BME280;19550;42.872;25.494;2023-02-04T12:14:28;95579.53;;;6.77;100.00
33185;BME280;19550;42.872;25.494;2023-02-04T12:16:56;95575.97;;;6.77;100.00
33185;BME280;19550;42.872;25.494;2023-02-04T12:19:25;95577.97;;;6.94;100.00
33185;BME280;19550;42.872;25.494;2023-02-04T12:21:52;95575.16;;;7.16;100.00
33185;BME280;19550;42.872;25.494;2023-02-04T12:24:19;95575.34;;;6.89;100.00
33185;BME280;19550;42.872;25.494;2023-02-04T12:26:46;95570.44;;;6.77;100.00
33185;BME280;19550;42.872;25.494;2023-02-04T12:29:13;95576.94;;;6.50;100.00
33185;BME280;19550;42.872;25.494;2023-02-04T12:31:39;95586.72;;;6.34;100.00
33185;BME280;19550;42.872;25.494;2023-02-04T12:34:06;95568.78;;;6.14;100.00
33185;BME280;19550;42.872;25.494;2023-02-04T12:36:34;95579.78;;;6.14;100.00
33185;BME280;19550;42.872;25.494;2023-02-04T12:39:01;95586.53;;;6.30;100.00
33185;BME280;19550;42.872;25.494;2023-02-04T12:41:28;95583.44;;;6.32;100.00
33185;BME280;19550;42.872;25.494;2023-02-04T12:43:55;95573.09;;;6.29;100.00
33185;BME280;19550;42.872;25.494;2023-02-04T12:46:22;95563.41;;;6.31;100.00
33185;BME280;19550;42.872;25.494;2023-02-04T12:48:49;95568.78;;;6.36;100.00
33185;BME280;19550;42.872;25.494;2023-02-04T12:51:16;95573.03;;;6.20;100.00
33185;BME280;19550;42.872;25.494;2023-02-04T12:53:46;95589.63;;;5.93;100.00
33185;BME280;19550;42.872;25.494;2023-02-04T12:56:13;95589.34;;;5.94;100.00
33185;BME280;19550;42.872;25.494;2023-02-04T12:58:40;95595.47;;;5.91;100.00